sensor_id;sensor_type;location;lat;lon;timestamp;pressure;altitude;pressure_sealevel;temperature;humidity
54562;BME280;69047;53.358;-1.486;2023-08-17T00:01:07;101269.16;;;17.22;70.67
54562;BME280;69047;53.358;-1.486;2023-08-17T00:03:32;101273.81;;;17.21;70.69
54562;BME280;69047;53.358;-1.486;2023-08-17T00:05:57;101275.00;;;16.95;71.91
54562;BME280;69047;53.358;-1.486;2023-08-17T00:08:23;101270.91;;;16.82;73.24
54562;BME280;69047;53.358;-1.486;2023-08-17T00:10:48;101266.81;;;16.80;72.63
54562;BME280;69047;53.358;-1.486;2023-08-17T00:13:13;101270.66;;;16.84;72.52
54562;BME280;69047;53.358;-1.486;2023-08-17T00:15:39;101265.22;;;16.58;73.36
54562;BME280;69047;53.358;-1.486;2023-08-17T00:18:05;101264.41;;;16.63;73.14
54562;BME280;69047;53.358;-1.486;2023-08-17T00:20:30;101272.75;;;17.12;71.70
54562;BME280;69047;53.358;-1.486;2023-08-17T00:22:55;101267.44;;;17.41;70.53
54562;BME280;69047;53.358;-1.486;2023-08-17T00:25:21;101276.84;;;17.20;70.95
54562;BME280;69047;53.358;-1.486;2023-08-17T00:27:46;101284.81;;;17.06;71.83
54562;BME280;69047;53.358;-1.486;2023-08-17T00:30:12;101276.00;;;17.19;71.49
54562;BME280;69047;53.358;-1.486;2023-08-17T00:32:37;101277.75;;;16.85;73.15
54562;BME280;69047;53.358;-1.486;2023-08-17T00:35:03;101282.59;;;17.13;72.53
54562;BME280;69047;53.358;-1.486;2023-08-17T00:37:28;101277.16;;;17.08;72.54
54562;BME280;69047;53.358;-1.486;2023-08-17T00:39:54;101279.03;;;17.12;72.52
54562;BME280;69047;53.358;-1.486;2023-08-17T00:42:19;101277.97;;;17.03;73.12
54562;BME280;69047;53.358;-1.486;2023-08-17T00:44:44;101288.34;;;17.11;72.98
54562;BME280;69047;53.358;-1.486;2023-08-17T00:47:10;101278.84;;;16.84;74.03
54562;BME280;69047;53.358;-1.486;2023-08-17T00:49:35;101272.06;;;16.66;75.32
54562;BME280;69047;53.358;-1.486;2023-08-17T00:52:01;101279.81;;;17.28;72.38
54562;BME280;69047;53.358;-1.486;2023-08-17T00:54:29;101278.31;;;16.87;74.14
54562;BME280;69047;53.358;-1.486;2023-08-17T00:56:56;101278.59;;;16.40;76.24
54562;BME280;69047;53.358;-1.486;2023-08-17T00:59:22;101276.16;;;16.38;76.62
54562;BME280;69047;53.358;-1.486;2023-08-17T01:01:48;101280.25;;;16.36;76.77
54562;BME280;69047;53.358;-1.486;2023-08-17T01:04:14;101277.47;;;16.91;74.31
54562;BME280;69047;53.358;-1.486;2023-08-17T01:06:40;101275.28;;;16.88;74.68
54562;BME280;69047;53.358;-1.486;2023-08-17T01:09:05;101268.69;;;16.94;73.70
54562;BME280;69047;53.358;-1.486;2023-08-17T01:11:38;101272.84;;;16.87;74.30
54562;BME280;69047;53.358;-1.486;2023-08-17T01:16:59;101269.00;;;16.93;74.22
54562;BME280;69047;53.358;-1.486;2023-08-17T01:19:27;101268.59;;;17.25;73.01
54562;BME280;69047;53.358;-1.486;2023-08-17T01:22:03;101267.34;;;16.92;73.78
54562;BME280;69047;53.358;-1.486;2023-08-17T01:24:30;101270.91;;;16.82;74.72
54562;BME280;69047;53.358;-1.486;2023-08-17T01:26:55;101270.84;;;17.02;74.19
54562;BME280;69047;53.358;-1.486;2023-08-17T01:29:21;101267.28;;;17.07;73.96
54562;BME280;69047;53.358;-1.486;2023-08-17T01:34:24;101273.09;;;16.95;74.55
54562;BME280;69047;53.358;-1.486;2023-08-17T01:37:00;101268.19;;;16.77;75.36
54562;BME280;69047;53.358;-1.486;2023-08-17T01:39:31;101267.91;;;16.79;75.23
54562;BME280;69047;53.358;-1.486;2023-08-17T01:41:59;101260.28;;;16.71;75.22
54562;BME280;69047;53.358;-1.486;2023-08-17T01:44:25;101263.31;;;16.59;76.23
54562;BME280;69047;53.358;-1.486;2023-08-17T01:46:52;101267.94;;;16.74;75.72
54562;BME280;69047;53.358;-1.486;2023-08-17T01:49:18;101267.88;;;16.99;74.61
54562;BME280;69047;53.358;-1.486;2023-08-17T01:51:44;101263.19;;;17.04;74.44
54562;BME280;69047;53.358;-1.486;2023-08-17T01:54:09;101269.66;;;17.34;73.24
54562;BME280;69047;53.358;-1.486;2023-08-17T01:56:34;101272.97;;;17.26;73.73
54562;BME280;69047;53.358;-1.486;2023-08-17T01:59:00;101264.25;;;17.08;73.87
54562;BME280;69047;53.358;-1.486;2023-08-17T02:01:25;101270.63;;;16.99;74.61
54562;BME280;69047;53.358;-1.486;2023-08-17T02:03:51;101271.22;;;16.71;75.77
54562;BME280;69047;53.358;-1.486;2023-08-17T02:06:16;101272.06;;;16.66;76.07
54562;BME280;69047;53.358;-1.486;2023-08-17T02:08:41;101267.59;;;16.95;75.31
54562;BME280;69047;53.358;-1.486;2023-08-17T02:11:07;101275.59;;;16.62;76.69
54562;BME280;69047;53.358;-1.486;2023-08-17T02:13:32;101280.78;;;16.48;77.56
54562;BME280;69047;53.358;-1.486;2023-08-17T02:15:58;101272.28;;;16.90;75.56
54562;BME280;69047;53.358;-1.486;2023-08-17T02:18:23;101274.16;;;16.94;75.56
54562;BME280;69047;53.358;-1.486;2023-08-17T02:20:48;101269.16;;;17.22;74.50
54562;BME280;69047;53.358;-1.486;2023-08-17T02:23:14;101270.47;;;17.34;73.50
54562;BME280;69047;53.358;-1.486;2023-08-17T02:25:40;101272.22;;;17.10;74.72
54562;BME280;69047;53.358;-1.486;2023-08-17T02:28:05;101264.78;;;17.15;74.33
54562;BME280;69047;53.358;-1.486;2023-08-17T02:30:31;101274.28;;;17.33;73.81
54562;BME280;69047;53.358;-1.486;2023-08-17T02:32:56;101266.00;;;17.48;73.64
54562;BME280;69047;53.358;-1.486;2023-08-17T02:35:24;101264.13;;;17.39;73.16
54562;BME280;69047;53.358;-1.486;2023-08-17T02:37:53;101265.81;;;17.30;73.96
54562;BME280;69047;53.358;-1.486;2023-08-17T02:40:20;101269.53;;;16.90;75.72
54562;BME280;69047;53.358;-1.486;2023-08-17T02:42:45;101269.03;;;16.78;76.29
54562;BME280;69047;53.358;-1.486;2023-08-17T02:45:11;101273.03;;;17.05;75.37
54562;BME280;69047;53.358;-1.486;2023-08-17T02:47:36;101273.13;;;16.70;76.60
54562;BME280;69047;53.358;-1.486;2023-08-17T02:50:02;101270.38;;;16.80;76.74
54562;BME280;69047;53.358;-1.486;2023-08-17T02:52:27;101268.91;;;17.13;75.61
54562;BME280;69047;53.358;-1.486;2023-08-17T02:54:52;101276.78;;;17.30;74.86
54562;BME280;69047;53.358;-1.486;2023-08-17T02:57:18;101277.22;;;17.57;73.81
54562;BME280;69047;53.358;-1.486;2023-08-17T02:59:44;101267.19;;;17.37;73.97
54562;BME280;69047;53.358;-1.486;2023-08-17T03:02:09;101271.97;;;16.91;75.95
54562;BME280;69047;53.358;-1.486;2023-08-17T03:04:35;101269.03;;;16.78;76.71
54562;BME280;69047;53.358;-1.486;2023-08-17T03:07:00;101269.56;;;16.70;77.35
54562;BME280;69047;53.358;-1.486;2023-08-17T03:09:25;101272.88;;;16.56;77.65
54562;BME280;69047;53.358;-1.486;2023-08-17T03:11:51;101271.53;;;16.54;78.25
54562;BME280;69047;53.358;-1.486;2023-08-17T03:14:17;101275.25;;;16.98;76.94
54562;BME280;69047;53.358;-1.486;2023-08-17T03:16:42;101270.38;;;16.80;76.95
54562;BME280;69047;53.358;-1.486;2023-08-17T03:19:08;101269.31;;;16.51;78.28
54562;BME280;69047;53.358;-1.486;2023-08-17T03:21:36;101267.41;;;16.56;78.28
54562;BME280;69047;53.358;-1.486;2023-08-17T03:24:01;101271.81;;;16.57;78.42
54562;BME280;69047;53.358;-1.486;2023-08-17T03:26:26;101273.97;;;16.45;78.68
54562;BME280;69047;53.358;-1.486;2023-08-17T03:28:52;101268.13;;;17.02;77.09
54562;BME280;69047;53.358;-1.486;2023-08-17T03:31:20;101273.03;;;17.10;76.59
54562;BME280;69047;53.358;-1.486;2023-08-17T03:33:46;101274.72;;;16.91;77.02
54562;BME280;69047;53.358;-1.486;2023-08-17T03:36:11;101267.13;;;16.58;78.10
54562;BME280;69047;53.358;-1.486;2023-08-17T03:38:37;101260.53;;;16.79;78.14
54562;BME280;69047;53.358;-1.486;2023-08-17T03:41:04;101263.50;;;16.88;77.03
54562;BME280;69047;53.358;-1.486;2023-08-17T03:43:30;101264.19;;;17.29;76.48
54562;BME280;69047;53.358;-1.486;2023-08-17T03:45:55;101264.66;;;17.46;75.32
54562;BME280;69047;53.358;-1.486;2023-08-17T03:48:20;101262.19;;;16.80;77.25
54562;BME280;69047;53.358;-1.486;2023-08-17T03:50:51;101260.25;;;16.86;78.12
54562;BME280;69047;53.358;-1.486;2023-08-17T03:53:17;101258.31;;;16.86;77.48
54562;BME280;69047;53.358;-1.486;2023-08-17T03:55:46;101255.25;;;17.03;77.48
54562;BME280;69047;53.358;-1.486;2023-08-17T03:58:12;101260.22;;;16.91;77.28
54562;BME280;69047;53.358;-1.486;2023-08-17T04:00:37;101260.00;;;16.67;78.19
54562;BME280;69047;53.358;-1.486;2023-08-17T04:03:04;101262.19;;;16.80;78.25
54562;BME280;69047;53.358;-1.486;2023-08-17T04:05:29;101267.69;;;16.55;78.58
54562;BME280;69047;53.358;-1.486;2023-08-17T04:07:55;101264.41;;;16.63;78.75
54562;BME280;69047;53.358;-1.486;2023-08-17T04:10:21;101260.47;;;16.99;77.77
54562;BME280;69047;53.358;-1.486;2023-08-17T04:12:46;101262.59;;;17.17;76.94
54562;BME280;69047;53.358;-1.486;2023-08-17T04:15:11;101252.31;;;17.58;75.00
54562;BME280;69047;53.358;-1.486;2023-08-17T04:17:37;101258.31;;;17.50;75.01
54562;BME280;69047;53.358;-1.486;2023-08-17T04:20:02;101257.19;;;16.97;76.86
54562;BME280;69047;53.358;-1.486;2023-08-17T04:22:28;101255.91;;;16.65;77.96
54562;BME280;69047;53.358;-1.486;2023-08-17T04:24:53;101254.56;;;16.62;78.17
54562;BME280;69047;53.358;-1.486;2023-08-17T04:27:19;101256.97;;;16.84;77.68
54562;BME280;69047;53.358;-1.486;2023-08-17T04:29:44;101250.63;;;16.98;77.73
54562;BME280;69047;53.358;-1.486;2023-08-17T04:32:14;101259.97;;;16.82;78.05
54562;BME280;69047;53.358;-1.486;2023-08-17T04:34:41;101260.84;;;16.63;78.11
54562;BME280;69047;53.358;-1.486;2023-08-17T04:37:07;101255.63;;;16.61;78.56
54562;BME280;69047;53.358;-1.486;2023-08-17T04:39:32;101255.34;;;16.52;78.79
54562;BME280;69047;53.358;-1.486;2023-08-17T04:41:58;101266.31;;;16.47;79.40
54562;BME280;69047;53.358;-1.486;2023-08-17T04:44:23;101260.28;;;16.71;78.29
54562;BME280;69047;53.358;-1.486;2023-08-17T04:46:48;101258.88;;;16.93;77.79
54562;BME280;69047;53.358;-1.486;2023-08-17T04:49:14;101262.09;;;17.10;77.03
54562;BME280;69047;53.358;-1.486;2023-08-17T04:51:39;101262.47;;;16.58;78.36
54562;BME280;69047;53.358;-1.486;2023-08-17T04:54:05;101257.03;;;16.48;79.39
54562;BME280;69047;53.358;-1.486;2023-08-17T04:56:30;101256.06;;;17.03;77.65
54562;BME280;69047;53.358;-1.486;2023-08-17T04:58:56;101261.56;;;16.98;77.07
54562;BME280;69047;53.358;-1.486;2023-08-17T05:01:21;101260.28;;;16.50;78.67
54562;BME280;69047;53.358;-1.486;2023-08-17T05:03:46;101264.41;;;16.48;79.86
54562;BME280;69047;53.358;-1.486;2023-08-17T05:06:12;101261.91;;;16.77;78.38
54562;BME280;69047;53.358;-1.486;2023-08-17T05:08:38;101261.91;;;16.77;77.88
54562;BME280;69047;53.358;-1.486;2023-08-17T05:11:03;101266.56;;;16.61;78.96
54562;BME280;69047;53.358;-1.486;2023-08-17T05:13:29;101263.59;;;16.57;78.71
54562;BME280;69047;53.358;-1.486;2023-08-17T05:15:54;101253.72;;;16.62;78.93
54562;BME280;69047;53.358;-1.486;2023-08-17T05:18:19;101258.69;;;16.54;78.86
54562;BME280;69047;53.358;-1.486;2023-08-17T05:20:45;101266.88;;;16.54;78.70
54562;BME280;69047;53.358;-1.486;2023-08-17T05:23:10;101267.13;;;16.33;79.53
54562;BME280;69047;53.358;-1.486;2023-08-17T05:25:36;101267.13;;;16.78;78.79
54562;BME280;69047;53.358;-1.486;2023-08-17T05:28:01;101262.19;;;16.70;78.47
54562;BME280;69047;53.358;-1.486;2023-08-17T05:30:27;101261.09;;;16.46;78.93
54562;BME280;69047;53.358;-1.486;2023-08-17T05:32:52;101253.16;;;16.49;79.32
54562;BME280;69047;53.358;-1.486;2023-08-17T05:35:18;101256.63;;;17.10;77.69
54562;BME280;69047;53.358;-1.486;2023-08-17T05:37:43;101253.94;;;16.90;77.98
54562;BME280;69047;53.358;-1.486;2023-08-17T05:40:09;101263.25;;;16.89;77.50
54562;BME280;69047;53.358;-1.486;2023-08-17T05:42:34;101253.41;;;16.93;77.19
54562;BME280;69047;53.358;-1.486;2023-08-17T05:45:00;101261.34;;;16.80;78.08
54562;BME280;69047;53.358;-1.486;2023-08-17T05:47:25;101260.53;;;16.84;77.16
54562;BME280;69047;53.358;-1.486;2023-08-17T05:49:50;101259.09;;;16.97;77.36
54562;BME280;69047;53.358;-1.486;2023-08-17T05:52:16;101260.88;;;17.37;75.94
54562;BME280;69047;53.358;-1.486;2023-08-17T05:54:41;101266.25;;;16.93;76.43
54562;BME280;69047;53.358;-1.486;2023-08-17T05:57:07;101264.59;;;16.92;76.91
54562;BME280;69047;53.358;-1.486;2023-08-17T05:59:33;101266.50;;;16.91;77.19
54562;BME280;69047;53.358;-1.486;2023-08-17T06:01:58;101269.53;;;16.85;77.48
54562;BME280;69047;53.358;-1.486;2023-08-17T06:04:24;101259.31;;;17.15;76.94
54562;BME280;69047;53.358;-1.486;2023-08-17T06:06:49;101271.19;;;17.60;74.84
54562;BME280;69047;53.358;-1.486;2023-08-17T06:09:15;101266.56;;;17.45;75.13
54562;BME280;69047;53.358;-1.486;2023-08-17T06:11:40;101259.06;;;17.12;75.86
54562;BME280;69047;53.358;-1.486;2023-08-17T06:14:06;101264.56;;;17.07;75.76
54562;BME280;69047;53.358;-1.486;2023-08-17T06:16:31;101265.34;;;17.12;75.37
54562;BME280;69047;53.358;-1.486;2023-08-17T06:18:57;101272.06;;;16.66;76.59
54562;BME280;69047;53.358;-1.486;2023-08-17T06:21:22;101274.16;;;16.94;76.57
54562;BME280;69047;53.358;-1.486;2023-08-17T06:23:48;101276.09;;;16.99;75.68
54562;BME280;69047;53.358;-1.486;2023-08-17T06:26:13;101269.69;;;17.24;75.53
54562;BME280;69047;53.358;-1.486;2023-08-17T06:28:38;101272.47;;;17.13;75.55
54562;BME280;69047;53.358;-1.486;2023-08-17T06:31:04;101269.22;;;17.01;76.71
54562;BME280;69047;53.358;-1.486;2023-08-17T06:33:29;101272.78;;;16.97;76.52
54562;BME280;69047;53.358;-1.486;2023-08-17T06:35:55;101277.16;;;16.98;77.09
54562;BME280;69047;53.358;-1.486;2023-08-17T06:38:20;101276.72;;;17.45;74.79
54562;BME280;69047;53.358;-1.486;2023-08-17T06:40:46;101280.78;;;17.57;74.79
54562;BME280;69047;53.358;-1.486;2023-08-17T06:43:11;101282.53;;;17.87;73.18
54562;BME280;69047;53.358;-1.486;2023-08-17T06:45:37;101285.88;;;17.15;75.66
54562;BME280;69047;53.358;-1.486;2023-08-17T06:48:03;101277.47;;;16.96;76.23
54562;BME280;69047;53.358;-1.486;2023-08-17T06:50:28;101278.16;;;17.32;75.10
54562;BME280;69047;53.358;-1.486;2023-08-17T06:52:54;101266.38;;;17.32;75.26
54562;BME280;69047;53.358;-1.486;2023-08-17T06:55:19;101278.84;;;17.63;73.59
54562;BME280;69047;53.358;-1.486;2023-08-17T06:57:45;101278.88;;;17.58;73.68
54562;BME280;69047;53.358;-1.486;2023-08-17T07:00:11;101281.19;;;17.26;74.45
54562;BME280;69047;53.358;-1.486;2023-08-17T07:02:37;101276.41;;;17.56;73.83
54562;BME280;69047;53.358;-1.486;2023-08-17T07:05:02;101276.03;;;17.73;72.59
54562;BME280;69047;53.358;-1.486;2023-08-17T07:07:29;101276.56;;;17.75;72.05
54562;BME280;69047;53.358;-1.486;2023-08-17T07:09:59;101282.22;;;17.94;71.91
54562;BME280;69047;53.358;-1.486;2023-08-17T07:12:25;101271.41;;;17.74;72.55
54562;BME280;69047;53.358;-1.486;2023-08-17T07:14:50;101277.47;;;17.60;72.82
54562;BME280;69047;53.358;-1.486;2023-08-17T07:17:16;101278.06;;;17.47;72.55
54562;BME280;69047;53.358;-1.486;2023-08-17T07:19:41;101268.22;;;17.46;73.03
54562;BME280;69047;53.358;-1.486;2023-08-17T07:22:07;101274.00;;;17.40;73.52
54562;BME280;69047;53.358;-1.486;2023-08-17T07:24:32;101274.53;;;17.42;72.40
54562;BME280;69047;53.358;-1.486;2023-08-17T07:26:58;101273.22;;;17.34;73.10
54562;BME280;69047;53.358;-1.486;2023-08-17T07:29:23;101269.78;;;17.62;71.74
54562;BME280;69047;53.358;-1.486;2023-08-17T07:31:49;101277.34;;;17.86;71.28
54562;BME280;69047;53.358;-1.486;2023-08-17T07:34:14;101278.69;;;17.88;71.44
54562;BME280;69047;53.358;-1.486;2023-08-17T07:36:39;101275.00;;;17.54;72.82
54562;BME280;69047;53.358;-1.486;2023-08-17T07:39:05;101277.78;;;17.49;72.67
54562;BME280;69047;53.358;-1.486;2023-08-17T07:41:30;101275.66;;;17.36;72.64
54562;BME280;69047;53.358;-1.486;2023-08-17T07:43:55;101275.13;;;17.88;71.68
54562;BME280;69047;53.358;-1.486;2023-08-17T07:46:21;101270.47;;;17.83;71.36
54562;BME280;69047;53.358;-1.486;2023-08-17T07:48:46;101276.44;;;17.95;71.62
54562;BME280;69047;53.358;-1.486;2023-08-17T07:51:12;101268.41;;;18.09;70.44
54562;BME280;69047;53.358;-1.486;2023-08-17T07:53:38;101273.47;;;17.87;70.83
54562;BME280;69047;53.358;-1.486;2023-08-17T07:56:04;101269.84;;;17.96;70.41
54562;BME280;69047;53.358;-1.486;2023-08-17T07:58:29;101265.19;;;17.58;71.74
54562;BME280;69047;53.358;-1.486;2023-08-17T08:00:55;101270.91;;;17.56;71.81
54562;BME280;69047;53.358;-1.486;2023-08-17T08:03:20;101267.56;;;17.69;70.61
54562;BME280;69047;53.358;-1.486;2023-08-17T08:05:45;101270.59;;;17.68;71.23
54562;BME280;69047;53.358;-1.486;2023-08-17T08:08:11;101271.75;;;17.52;71.85
54562;BME280;69047;53.358;-1.486;2023-08-17T08:10:36;101273.66;;;17.61;71.14
54562;BME280;69047;53.358;-1.486;2023-08-17T08:13:02;101270.31;;;17.69;70.65
54562;BME280;69047;53.358;-1.486;2023-08-17T08:15:28;101271.44;;;17.63;71.03
54562;BME280;69047;53.358;-1.486;2023-08-17T08:17:53;101269.91;;;17.86;70.27
54562;BME280;69047;53.358;-1.486;2023-08-17T08:20:20;101271.97;;;18.09;70.06
54562;BME280;69047;53.358;-1.486;2023-08-17T08:22:45;101277.00;;;17.43;70.74
54562;BME280;69047;53.358;-1.486;2023-08-17T08:25:10;101270.69;;;17.43;70.87
54562;BME280;69047;53.358;-1.486;2023-08-17T08:27:36;101278.00;;;17.62;70.55
54562;BME280;69047;53.358;-1.486;2023-08-17T08:30:01;101273.16;;;17.93;70.06
54562;BME280;69047;53.358;-1.486;2023-08-17T08:32:26;101274.78;;;17.99;68.98
54562;BME280;69047;53.358;-1.486;2023-08-17T08:34:52;101260.88;;;17.91;68.63
54562;BME280;69047;53.358;-1.486;2023-08-17T08:37:17;101270.47;;;17.83;69.36
54562;BME280;69047;53.358;-1.486;2023-08-17T08:39:53;101275.09;;;17.93;69.13
54562;BME280;69047;53.358;-1.486;2023-08-17T08:42:20;101274.34;;;17.82;69.63
54562;BME280;69047;53.358;-1.486;2023-08-17T08:44:46;101279.69;;;18.02;68.95
54562;BME280;69047;53.358;-1.486;2023-08-17T08:47:12;101273.50;;;18.20;67.34
54562;BME280;69047;53.358;-1.486;2023-08-17T08:49:49;101265.34;;;18.15;68.21
54562;BME280;69047;53.358;-1.486;2023-08-17T08:52:19;101269.00;;;18.35;67.86
54562;BME280;69047;53.358;-1.486;2023-08-17T08:54:49;101266.63;;;18.23;68.65
54562;BME280;69047;53.358;-1.486;2023-08-17T08:57:15;101270.56;;;18.12;68.83
54562;BME280;69047;53.358;-1.486;2023-08-17T08:59:42;101266.88;;;17.93;68.60
54562;BME280;69047;53.358;-1.486;2023-08-17T09:02:15;101271.97;;;17.71;69.10
54562;BME280;69047;53.358;-1.486;2023-08-17T09:04:43;101274.41;;;18.11;69.37
54562;BME280;69047;53.358;-1.486;2023-08-17T09:07:11;101278.78;;;18.51;67.28
54562;BME280;69047;53.358;-1.486;2023-08-17T09:09:37;101281.72;;;18.59;66.60
54562;BME280;69047;53.358;-1.486;2023-08-17T09:12:04;101282.25;;;18.85;65.91
54562;BME280;69047;53.358;-1.486;2023-08-17T09:14:29;101287.91;;;18.70;65.86
54562;BME280;69047;53.358;-1.486;2023-08-17T09:16:55;101278.47;;;18.52;66.06
54562;BME280;69047;53.358;-1.486;2023-08-17T09:19:24;101277.94;;;18.50;66.67
54562;BME280;69047;53.358;-1.486;2023-08-17T09:21:49;101278.06;;;18.69;65.60
54562;BME280;69047;53.358;-1.486;2023-08-17T09:24:15;101277.94;;;18.79;64.87
54562;BME280;69047;53.358;-1.486;2023-08-17T09:26:40;101266.91;;;18.84;64.71
54562;BME280;69047;53.358;-1.486;2023-08-17T09:29:19;101275.03;;;18.94;64.62
54562;BME280;69047;53.358;-1.486;2023-08-17T09:31:48;101273.84;;;18.76;64.83
54562;BME280;69047;53.358;-1.486;2023-08-17T09:34:14;101271.88;;;19.06;64.11
54562;BME280;69047;53.358;-1.486;2023-08-17T09:36:41;101273.75;;;18.87;64.38
54562;BME280;69047;53.358;-1.486;2023-08-17T09:39:07;101275.03;;;18.94;63.74
54562;BME280;69047;53.358;-1.486;2023-08-17T09:41:41;101269.94;;;19.06;63.51
54562;BME280;69047;53.358;-1.486;2023-08-17T09:44:06;101272.38;;;18.60;61.08
54562;BME280;69047;53.358;-1.486;2023-08-17T09:46:32;101280.06;;;18.87;62.67
54562;BME280;69047;53.358;-1.486;2023-08-17T09:48:58;101276.56;;;18.82;62.64
54562;BME280;69047;53.358;-1.486;2023-08-17T09:51:24;101267.91;;;18.93;60.67
54562;BME280;69047;53.358;-1.486;2023-08-17T09:53:52;101272.66;;;19.11;60.45
54562;BME280;69047;53.358;-1.486;2023-08-17T09:56:21;101266.00;;;19.36;59.48
54562;BME280;69047;53.358;-1.486;2023-08-17T09:58:48;101272.94;;;19.10;61.61
54562;BME280;69047;53.358;-1.486;2023-08-17T10:01:14;101273.63;;;19.20;62.32
54562;BME280;69047;53.358;-1.486;2023-08-17T10:03:43;101278.09;;;18.88;62.14
54562;BME280;69047;53.358;-1.486;2023-08-17T10:06:12;101277.38;;;18.53;64.65
54562;BME280;69047;53.358;-1.486;2023-08-17T10:08:47;101273.97;;;18.66;64.26
54562;BME280;69047;53.358;-1.486;2023-08-17T10:11:15;101267.91;;;18.93;63.13
54562;BME280;69047;53.358;-1.486;2023-08-17T10:16:40;101274.69;;;19.01;63.26
54562;BME280;69047;53.358;-1.486;2023-08-17T10:19:19;101269.66;;;18.84;62.20
54562;BME280;69047;53.358;-1.486;2023-08-17T10:21:50;101275.97;;;19.32;60.94
54562;BME280;69047;53.358;-1.486;2023-08-17T10:24:17;101268.22;;;19.58;59.01
54562;BME280;69047;53.358;-1.486;2023-08-17T10:26:44;101266.81;;;19.60;59.29
54562;BME280;69047;53.358;-1.486;2023-08-17T10:29:10;101270.09;;;19.81;59.56
54562;BME280;69047;53.358;-1.486;2023-08-17T10:31:37;101269.53;;;19.42;61.23
54562;BME280;69047;53.358;-1.486;2023-08-17T10:34:04;101270.88;;;19.20;62.01
54562;BME280;69047;53.358;-1.486;2023-08-17T10:36:33;101270.75;;;19.30;61.26
54562;BME280;69047;53.358;-1.486;2023-08-17T10:41:48;101265.69;;;19.43;61.62
54562;BME280;69047;53.358;-1.486;2023-08-17T10:44:14;101269.25;;;19.43;59.79
54562;BME280;69047;53.358;-1.486;2023-08-17T10:46:40;101264.97;;;19.32;60.39
54562;BME280;69047;53.358;-1.486;2023-08-17T10:49:07;101268.16;;;20.00;58.93
54562;BME280;69047;53.358;-1.486;2023-08-17T10:52:06;101266.00;;;19.78;59.76
54562;BME280;69047;53.358;-1.486;2023-08-17T10:54:39;101268.91;;;19.50;59.71
54562;BME280;69047;53.358;-1.486;2023-08-17T11:02:34;101269.75;;;19.45;60.18
54562;BME280;69047;53.358;-1.486;2023-08-17T11:05:02;101264.06;;;19.60;59.72
54562;BME280;69047;53.358;-1.486;2023-08-17T11:07:38;101259.97;;;19.95;59.70
54562;BME280;69047;53.358;-1.486;2023-08-17T11:10:32;101258.88;;;19.96;58.75
54562;BME280;69047;53.358;-1.486;2023-08-17T11:12:57;101264.03;;;20.35;58.12
54562;BME280;69047;53.358;-1.486;2023-08-17T11:15:35;101258.66;;;19.74;58.76
54562;BME280;69047;53.358;-1.486;2023-08-17T11:18:04;101264.78;;;20.22;58.63
54562;BME280;69047;53.358;-1.486;2023-08-17T11:20:30;101256.72;;;19.74;59.57
54562;BME280;69047;53.358;-1.486;2023-08-17T11:22:57;101260.72;;;20.01;58.84
54562;BME280;69047;53.358;-1.486;2023-08-17T11:25:23;101265.47;;;19.58;58.58
54562;BME280;69047;53.358;-1.486;2023-08-17T11:27:48;101254.03;;;19.88;58.14
54562;BME280;69047;53.358;-1.486;2023-08-17T11:30:15;101256.69;;;20.12;57.22
54562;BME280;69047;53.358;-1.486;2023-08-17T11:32:40;101250.75;;;20.05;57.08
54562;BME280;69047;53.358;-1.486;2023-08-17T11:35:06;101255.56;;;20.64;56.31
54562;BME280;69047;53.358;-1.486;2023-08-17T11:37:32;101253.31;;;20.79;55.18
54562;BME280;69047;53.358;-1.486;2023-08-17T11:39:57;101246.41;;;20.95;54.89
54562;BME280;69047;53.358;-1.486;2023-08-17T11:42:23;101245.97;;;20.75;56.00
54562;BME280;69047;53.358;-1.486;2023-08-17T11:44:48;101253.16;;;20.43;56.76
54562;BME280;69047;53.358;-1.486;2023-08-17T11:47:14;101249.44;;;20.34;56.57
54562;BME280;69047;53.358;-1.486;2023-08-17T11:49:39;101250.50;;;20.38;56.73
54562;BME280;69047;53.358;-1.486;2023-08-17T11:52:05;101234.97;;;20.88;54.81
54562;BME280;69047;53.358;-1.486;2023-08-17T11:54:32;101239.47;;;20.84;55.14
54562;BME280;69047;53.358;-1.486;2023-08-17T11:56:58;101241.78;;;20.91;55.56
54562;BME280;69047;53.358;-1.486;2023-08-17T11:59:24;101243.66;;;21.23;53.17
54562;BME280;69047;53.358;-1.486;2023-08-17T12:01:50;101241.19;;;20.94;53.72
54562;BME280;69047;53.358;-1.486;2023-08-17T12:04:15;101238.28;;;20.58;52.92
54562;BME280;69047;53.358;-1.486;2023-08-17T12:06:44;101235.78;;;20.29;54.32
54562;BME280;69047;53.358;-1.486;2023-08-17T12:09:12;101228.94;;;20.59;55.11
54562;BME280;69047;53.358;-1.486;2023-08-17T12:11:40;101226.50;;;20.25;55.13
54562;BME280;69047;53.358;-1.486;2023-08-17T12:14:11;101222.22;;;20.65;56.28
54562;BME280;69047;53.358;-1.486;2023-08-17T12:16:47;101220.38;;;20.88;54.76
54562;BME280;69047;53.358;-1.486;2023-08-17T12:19:15;101212.41;;;21.41;52.80
54562;BME280;69047;53.358;-1.486;2023-08-17T12:21:42;101212.47;;;21.14;52.79
54562;BME280;69047;53.358;-1.486;2023-08-17T12:24:11;101208.97;;;20.94;54.08
54562;BME280;69047;53.358;-1.486;2023-08-17T12:26:46;101203.44;;;20.54;53.57
54562;BME280;69047;53.358;-1.486;2023-08-17T12:29:12;101209.28;;;20.93;54.02
54562;BME280;69047;53.358;-1.486;2023-08-17T12:31:38;101207.53;;;20.97;52.59
54562;BME280;69047;53.358;-1.486;2023-08-17T12:34:03;101203.06;;;21.15;53.62
54562;BME280;69047;53.358;-1.486;2023-08-17T12:36:31;101203.38;;;21.13;52.83
54562;BME280;69047;53.358;-1.486;2023-08-17T12:38:57;101201.31;;;20.78;54.23
54562;BME280;69047;53.358;-1.486;2023-08-17T12:41:22;101199.50;;;20.87;53.93
54562;BME280;69047;53.358;-1.486;2023-08-17T12:44:05;101188.16;;;20.88;53.51
54562;BME280;69047;53.358;-1.486;2023-08-17T12:46:31;101197.75;;;20.91;53.86
54562;BME280;69047;53.358;-1.486;2023-08-17T12:48:58;101188.25;;;21.24;54.02
54562;BME280;69047;53.358;-1.486;2023-08-17T12:51:24;101184.75;;;21.46;51.68
54562;BME280;69047;53.358;-1.486;2023-08-17T12:53:49;101188.06;;;21.57;52.01